Time;durP1;ratioP1;P1;durP2;ratioP2;P2;SDS_P1;SDS_P2;PMS_P1;PMS_P2;Temp;Humidity;BMP_temperature;BMP_pressure;BME280_temperature;BME280_humidity;BME280_pressure;Samples;Min_cycle;Max_cycle;Signal;HPM_P1;HPM_P2
2021/12/28 00:01:04;;;;;;;10.17;3.10;;;;;;;6.97;80.59;97662.69;5042974;28;21015;-67
2021/12/28 00:03:32;;;;;;;11.80;3.23;;;;;;;6.99;79.41;97670.44;5048926;28;20224;-67
2021/12/28 00:06:00;;;;;;;9.87;3.37;;;;;;;6.49;80.37;97684.75;5048844;28;20608;-68
2021/12/28 00:08:28;;;;;;;16.17;3.93;;;;;;;6.95;78.47;97641.69;5048759;28;20220;-67
2021/12/28 00:10:56;;;;;;;6.67;2.63;;;;;;;6.35;80.37;97664.47;5047763;28;20230;-67
2021/12/28 00:13:25;;;;;;;12.50;3.70;;;;;;;7.01;78.35;97634.75;5048909;28;20224;-67
2021/12/28 00:18:24;;;;;;;12.90;3.60;;;;;;;6.97;78.48;97632.72;5048873;28;20226;-67
2021/12/28 00:20:54;;;;;;;9.97;3.60;;;;;;;7.41;78.26;97604.84;5048412;28;20230;-67
2021/12/28 00:23:31;;;;;;;16.90;3.90;;;;;;;6.96;78.54;97631.91;5043079;28;20228;-67
2021/12/28 00:25:59;;;;;;;13.50;3.80;;;;;;;7.15;78.11;97611.75;5046121;28;20235;-67
2021/12/28 00:28:28;;;;;;;18.07;4.57;;;;;;;7.38;76.48;97599.94;5047557;28;20580;-67
2021/12/28 00:30:56;;;;;;;14.80;3.20;;;;;;;7.04;77.00;97628.25;5043667;28;20238;-67
2021/12/28 00:33:24;;;;;;;9.73;3.20;;;;;;;7.00;77.32;97635.78;5048381;28;20228;-67
2021/12/28 00:35:52;;;;;;;14.43;3.77;;;;;;;8.18;74.06;97568.00;5048227;28;20597;-67
2021/12/28 00:38:23;;;;;;;13.90;3.43;;;;;;;7.68;75.45;97576.47;5048238;28;20227;-67
2021/12/28 00:40:55;;;;;;;11.60;3.30;;;;;;;7.45;76.44;97614.00;5047853;28;20236;-67
2021/12/28 00:43:23;;;;;;;10.93;2.90;;;;;;;6.82;75.63;97625.75;5048921;28;20238;-67
2021/12/28 00:45:50;;;;;;;12.03;3.40;;;;;;;7.08;76.38;97624.16;5047546;28;20233;-67
2021/12/28 00:48:17;;;;;;;10.67;3.73;;;;;;;9.01;70.09;97535.25;5047876;28;20226;-67
2021/12/28 00:50:45;;;;;;;11.57;3.20;;;;;;;9.42;68.81;97527.75;5046700;28;20228;-67
2021/12/28 00:53:12;;;;;;;15.37;4.23;;;;;;;8.01;70.83;97557.84;5047911;28;20235;-67
2021/12/28 00:55:39;;;;;;;13.47;3.60;;;;;;;8.54;71.34;97535.53;5048424;28;20232;-67
2021/12/28 00:58:06;;;;;;;13.80;3.33;;;;;;;8.75;71.14;97542.41;5047798;28;20231;-67
2021/12/28 01:00:36;;;;;;;9.43;3.10;;;;;;;7.80;74.01;97569.50;5055046;28;20228;-67
2021/12/28 01:03:05;;;;;;;11.63;3.40;;;;;;;8.38;70.66;97536.00;5047511;28;20234;-67
2021/12/28 01:05:33;;;;;;;12.00;3.57;;;;;;;8.25;70.91;97540.38;5047808;28;20228;-67
2021/12/28 01:08:00;;;;;;;11.47;3.20;;;;;;;6.63;76.14;97611.44;5047859;28;20224;-67
2021/12/28 01:10:38;;;;;;;9.40;3.43;;;;;;;7.06;76.11;97608.47;5047179;28;20253;-67
2021/12/28 01:13:06;;;;;;;13.63;3.67;;;;;;;7.56;73.94;97570.16;5048127;28;20714;-67
2021/12/28 01:15:33;;;;;;;7.50;3.07;;;;;;;8.30;72.40;97529.13;5048050;28;20220;-67
2021/12/28 01:18:00;;;;;;;8.53;2.83;;;;;;;7.01;74.20;97579.09;5046821;28;20230;-67
2021/12/28 01:20:27;;;;;;;8.10;2.90;;;;;;;7.68;72.73;97539.31;5047121;28;20216;-67
2021/12/28 01:22:55;;;;;;;11.03;3.00;;;;;;;7.72;74.23;97537.88;5046483;28;20222;-67
2021/12/28 01:25:23;;;;;;;10.27;4.20;;;;;;;6.68;75.43;97569.25;5045844;28;20223;-67
2021/12/28 01:27:51;;;;;;;9.80;3.17;;;;;;;7.17;75.68;97575.25;5046113;28;20230;-67
2021/12/28 01:30:20;;;;;;;7.80;3.30;;;;;;;7.17;73.39;97555.88;5053957;28;20236;-67
2021/12/28 01:32:49;;;;;;;7.03;2.73;;;;;;;8.23;71.75;97525.69;5045198;28;20228;-67
2021/12/28 01:35:17;;;;;;;10.90;2.77;;;;;;;7.55;73.01;97566.66;5045404;28;20318;-67
2021/12/28 01:37:45;;;;;;;12.10;2.97;;;;;;;7.69;73.30;97559.53;5047459;28;20883;-67
2021/12/28 01:40:17;;;;;;;9.43;3.20;;;;;;;7.44;72.79;97562.81;5046022;28;20223;-67
2021/12/28 01:42:56;;;;;;;9.67;2.83;;;;;;;7.33;72.34;97556.28;5044692;28;20226;-67
2021/12/28 01:45:40;;;;;;;13.07;2.73;;;;;;;6.82;74.22;97579.91;5046574;28;20272;-67
2021/12/28 01:48:09;;;;;;;7.60;2.63;;;;;;;7.47;72.35;97538.53;5045356;28;20226;-67
2021/12/28 01:50:37;;;;;;;9.17;3.33;;;;;;;7.63;71.84;97536.47;5045057;28;20589;-67
2021/12/28 01:53:06;;;;;;;9.70;3.20;;;;;;;7.26;73.75;97555.44;5027573;28;20235;-67
2021/12/28 01:55:35;;;;;;;9.03;2.70;;;;;;;7.19;72.62;97545.88;5047199;28;20600;-67
2021/12/28 01:58:03;;;;;;;5.67;2.50;;;;;;;6.99;73.12;97551.97;5046684;28;20724;-66
2021/12/28 02:00:30;;;;;;;6.10;2.40;;;;;;;7.35;72.93;97532.19;5052860;28;20234;-67
2021/12/28 02:02:58;;;;;;;15.97;3.07;;;;;;;7.02;72.86;97545.47;5046856;28;20235;-67
2021/12/28 02:05:26;;;;;;;8.43;2.60;;;;;;;6.86;74.34;97555.44;5046448;28;20242;-67
2021/12/28 02:07:53;;;;;;;8.27;2.90;;;;;;;7.19;73.04;97528.13;5044570;28;20757;-67
2021/12/28 02:10:20;;;;;;;7.43;2.67;;;;;;;7.20;73.43;97523.63;5044589;28;20234;-67
2021/12/28 02:12:47;;;;;;;4.43;2.30;;;;;;;7.07;73.29;97532.41;5047565;28;20236;-67
2021/12/28 02:15:15;;;;;;;7.23;2.50;;;;;;;7.47;73.41;97527.91;5047109;28;20224;-67
2021/12/28 02:17:42;;;;;;;7.20;2.20;;;;;;;7.38;72.32;97513.22;5045161;28;20724;-67
2021/12/28 02:20:17;;;;;;;8.37;2.30;;;;;;;7.65;70.60;97492.78;5044848;28;20229;-67
2021/12/28 02:22:44;;;;;;;5.33;2.30;;;;;;;7.57;71.97;97506.28;5036101;28;20728;-67
2021/12/28 02:25:15;;;;;;;7.30;2.47;;;;;;;8.24;71.07;97485.63;5037647;28;20249;-67
2021/12/28 02:27:42;;;;;;;6.80;2.40;;;;;;;7.11;72.53;97510.56;5039236;28;20237;-67
2021/12/28 02:30:12;;;;;;;11.60;3.03;;;;;;;8.20;70.81;97473.78;5049759;28;20228;-67
2021/12/28 02:32:41;;;;;;;7.03;2.27;;;;;;;6.77;73.53;97511.59;5042068;28;20235;-67
2021/12/28 02:35:12;;;;;;;6.90;2.47;;;;;;;7.02;73.31;97519.78;5045949;28;20216;-67
2021/12/28 02:37:40;;;;;;;7.00;2.77;;;;;;;7.18;72.73;97496.50;5046718;28;20222;-67
2021/12/28 02:40:10;;;;;;;11.53;3.00;;;;;;;7.42;71.35;97474.66;5044218;28;20621;-67
2021/12/28 02:42:37;;;;;;;11.17;2.80;;;;;;;8.54;70.23;97455.81;5044455;28;20812;-67
2021/12/28 02:45:14;;;;;;;7.83;2.57;;;;;;;6.99;72.90;97500.81;5046105;28;20228;-67
2021/12/28 02:47:44;;;;;;;5.50;2.30;;;;;;;7.28;72.31;97481.84;5045887;28;20688;-67
2021/12/28 02:50:15;;;;;;;7.77;2.77;;;;;;;7.26;72.11;97475.09;5045302;28;20230;-67
2021/12/28 02:52:43;;;;;;;7.80;2.90;;;;;;;8.21;70.26;97440.91;5044112;28;20231;-67
2021/12/28 02:55:12;;;;;;;7.33;2.63;;;;;;;7.73;71.38;97461.75;5045959;28;20714;-67
2021/12/28 02:58:07;;;;;;;7.67;3.03;;;;;;;7.85;69.76;97439.63;5032839;28;20236;-67
2021/12/28 03:00:43;;;;;;;6.47;2.77;;;;;;;7.82;70.91;97447.22;5028927;28;20234;-67
2021/12/28 03:03:18;;;;;;;8.73;2.83;;;;;;;7.71;71.06;97448.69;5046903;28;20695;-67
2021/12/28 03:05:47;;;;;;;5.20;3.00;;;;;;;7.45;71.51;97470.75;5045742;28;20231;-67
2021/12/28 03:08:16;;;;;;;6.07;2.30;;;;;;;7.65;71.09;97452.19;5044941;28;20223;-67
2021/12/28 03:10:45;;;;;;;8.97;3.00;;;;;;;7.88;70.22;97444.53;5049569;28;20228;-67
2021/12/28 03:13:27;;;;;;;8.27;2.60;;;;;;;7.76;70.27;97429.50;5045675;28;20224;-67
2021/12/28 03:15:55;;;;;;;8.83;2.40;;;;;;;7.74;71.32;97434.19;5045961;28;20648;-67
2021/12/28 03:18:23;;;;;;;11.10;3.20;;;;;;;8.34;68.77;97418.75;5045573;28;20231;-67
2021/12/28 03:20:50;;;;;;;10.67;3.00;;;;;;;7.83;71.21;97436.38;5044620;28;20258;-67
2021/12/28 03:23:19;;;;;;;5.30;2.37;;;;;;;8.59;69.67;97415.31;5046151;28;20224;-67
2021/12/28 03:25:47;;;;;;;6.13;2.37;;;;;;;7.61;71.42;97438.53;5045499;28;20608;-67
2021/12/28 03:28:20;;;;;;;8.00;2.37;;;;;;;7.83;71.67;97425.78;5037357;28;20660;-67
2021/12/28 03:30:48;;;;;;;10.03;2.57;;;;;;;7.48;72.53;97433.22;5051809;28;20244;-67
2021/12/28 03:33:15;;;;;;;11.60;2.63;;;;;;;7.50;72.41;97421.38;5037901;28;20227;-67
2021/12/28 03:35:42;;;;;;;8.70;2.93;;;;;;;8.03;71.56;97404.44;5045458;28;20224;-67
2021/12/28 03:38:09;;;;;;;8.63;2.60;;;;;;;7.10;74.27;97439.22;5045794;28;20656;-67
2021/12/28 03:40:36;;;;;;;7.63;2.77;;;;;;;7.31;73.62;97430.19;5044777;28;20635;-67
2021/12/28 03:43:03;;;;;;;5.47;2.20;;;;;;;7.04;74.74;97432.09;5043415;28;20226;-67
2021/12/28 03:45:30;;;;;;;7.67;2.97;;;;;;;7.31;74.33;97411.63;5043041;28;20224;-67
2021/12/28 03:47:58;;;;;;;8.03;2.60;;;;;;;7.38;74.65;97393.88;5044649;28;20230;-67
2021/12/28 03:50:25;;;;;;;7.47;2.50;;;;;;;7.31;74.84;97388.56;5044197;28;20765;-67
2021/12/28 03:52:54;;;;;;;7.53;2.73;;;;;;;7.84;73.72;97369.03;5042211;28;20223;-67
2021/12/28 03:55:23;;;;;;;9.80;2.50;;;;;;;7.51;75.00;97388.50;5045319;28;20219;-67
2021/12/28 03:57:51;;;;;;;4.83;1.93;;;;;;;7.29;74.99;97379.22;5035758;28;20222;-67
2021/12/28 04:00:20;;;;;;;7.87;2.80;;;;;;;7.52;73.78;97370.78;5050940;28;20236;-67
2021/12/28 04:02:48;;;;;;;9.57;2.87;;;;;;;7.55;74.41;97370.34;5041087;28;20224;-67
2021/12/28 04:05:16;;;;;;;6.90;2.90;;;;;;;7.57;74.05;97359.50;5040156;28;20236;-67
2021/12/28 04:07:44;;;;;;;7.27;2.20;;;;;;;8.68;70.70;97318.31;5045552;28;20230;-67
2021/12/28 04:10:12;;;;;;;10.07;2.60;;;;;;;7.55;73.97;97374.84;5045540;28;20226;-67
2021/12/28 04:12:40;;;;;;;10.60;2.87;;;;;;;7.54;74.11;97358.13;5047375;28;20238;-68
2021/12/28 04:15:10;;;;;;;6.87;2.20;;;;;;;7.40;74.76;97367.97;5046202;28;20238;-67
2021/12/28 04:17:38;;;;;;;8.97;2.50;;;;;;;7.19;75.16;97368.25;5042680;28;20872;-67
2021/12/28 04:20:13;;;;;;;9.10;2.50;;;;;;;7.60;74.74;97345.88;5045629;28;20255;-67
2021/12/28 04:22:41;;;;;;;7.53;2.57;;;;;;;7.42;74.95;97354.47;5019619;28;20454;-67
2021/12/28 04:25:10;;;;;;;11.03;2.90;;;;;;;7.26;75.85;97366.38;5047851;28;20223;-67
2021/12/28 04:27:37;;;;;;;8.20;2.80;;;;;;;7.30;76.20;97368.41;5047705;28;20794;-67
2021/12/28 04:30:07;;;;;;;6.13;3.00;;;;;;;7.63;74.32;97340.13;5047831;28;20765;-67
2021/12/28 04:32:35;;;;;;;9.13;2.80;;;;;;;7.69;74.44;97345.41;5044470;28;20231;-67
2021/12/28 04:35:03;;;;;;;6.60;2.30;;;;;;;9.05;69.39;97294.44;5046574;28;20232;-67
2021/12/28 04:37:31;;;;;;;5.93;2.70;;;;;;;10.25;65.42;97270.72;5045262;28;20223;-68
2021/12/28 04:39:58;;;;;;;8.47;2.90;;;;;;;10.59;64.74;97273.59;5045683;28;20236;-67
2021/12/28 04:42:27;;;;;;;8.07;2.50;;;;;;;10.32;65.16;97270.59;5066850;28;20229;-68
2021/12/28 04:44:54;;;;;;;8.03;2.47;;;;;;;10.53;64.08;97270.03;5068147;28;20788;-67
2021/12/28 04:47:21;;;;;;;11.03;2.73;;;;;;;10.91;63.46;97279.41;5067651;28;20249;-67
2021/12/28 04:49:48;;;;;;;6.80;2.63;;;;;;;10.99;63.14;97272.91;5063653;28;20711;-67
2021/12/28 04:52:15;;;;;;;9.43;2.70;;;;;;;10.43;64.85;97280.47;5066502;28;20223;-67
2021/12/28 04:54:43;;;;;;;9.70;3.00;;;;;;;10.47;64.21;97278.94;5067229;28;20239;-67
2021/12/28 04:57:10;;;;;;;10.27;2.90;;;;;;;10.38;64.47;97286.47;5067533;28;20215;-67
2021/12/28 04:59:37;;;;;;;10.60;2.87;;;;;;;9.25;68.33;97338.63;5066360;28;20714;-67
2021/12/28 05:02:04;;;;;;;7.93;3.10;;;;;;;10.25;65.18;97295.50;5064606;28;20219;-67
2021/12/28 05:04:31;;;;;;;9.03;2.50;;;;;;;10.23;64.84;97286.13;5072467;28;20227;-67
2021/12/28 05:06:58;;;;;;;6.50;2.73;;;;;;;10.21;64.29;97280.22;5066957;28;20236;-68
2021/12/28 05:09:25;;;;;;;4.93;2.40;;;;;;;10.35;64.89;97286.94;5067472;28;20894;-67
2021/12/28 05:11:52;;;;;;;8.93;3.03;;;;;;;10.39;64.07;97272.13;5068102;28;20225;-67
2021/12/28 05:14:20;;;;;;;8.93;3.13;;;;;;;9.46;67.62;97311.56;5067311;28;20225;-68
2021/12/28 05:16:48;;;;;;;8.23;2.83;;;;;;;9.77;66.82;97296.41;5066443;28;20228;-67
2021/12/28 05:19:15;;;;;;;9.67;2.90;;;;;;;6.71;74.50;97338.38;5066710;28;20238;-68
2021/12/28 05:21:43;;;;;;;7.10;2.87;;;;;;;8.04;72.98;97338.88;5067067;28;20231;-67
2021/12/28 05:24:11;;;;;;;8.30;3.30;;;;;;;6.35;79.28;97371.38;5068179;28;20617;-68
2021/12/28 05:26:38;;;;;;;7.10;2.70;;;;;;;6.69;77.60;97350.19;5046733;28;20633;-68
2021/12/28 05:29:05;;;;;;;8.03;2.50;;;;;;;7.02;78.00;97334.22;5045694;28;20232;-67
2021/12/28 05:31:32;;;;;;;6.20;2.63;;;;;;;7.73;75.39;97289.25;5041735;28;20216;-67
2021/12/28 05:33:59;;;;;;;5.33;2.80;;;;;;;6.73;77.54;97336.31;5043647;28;20238;-67
2021/12/28 05:36:26;;;;;;;7.73;2.63;;;;;;;7.10;75.42;97302.19;5045573;28;20218;-67
2021/12/28 05:38:54;;;;;;;8.27;2.70;;;;;;;8.08;71.47;97268.41;5035612;28;20240;-67
2021/12/28 05:41:22;;;;;;;6.07;2.20;;;;;;;8.21;73.77;97262.97;5049979;28;20229;-67
2021/12/28 05:43:48;;;;;;;5.07;2.60;;;;;;;6.41;79.31;97316.81;5039145;28;20233;-67
2021/12/28 05:46:15;;;;;;;3.87;2.20;;;;;;;6.81;76.66;97297.38;5038162;28;20635;-67
2021/12/28 05:48:43;;;;;;;3.90;2.03;;;;;;;7.42;76.85;97264.28;5046927;28;20267;-67
2021/12/28 05:51:10;;;;;;;5.27;2.43;;;;;;;7.21;77.71;97276.03;5046447;28;20227;-67
2021/12/28 05:53:37;;;;;;;2.27;1.73;;;;;;;8.12;74.04;97221.78;5046856;28;20236;-67
2021/12/28 05:56:04;;;;;;;3.53;2.00;;;;;;;6.62;77.25;97273.38;5045547;28;20729;-67
2021/12/28 05:58:31;;;;;;;4.63;2.03;;;;;;;7.09;76.84;97265.28;5045234;28;20696;-67
2021/12/28 06:00:58;;;;;;;4.13;2.03;;;;;;;6.74;76.99;97284.97;5052019;28;20236;-67
2021/12/28 06:03:26;;;;;;;2.53;2.07;;;;;;;7.38;75.83;97263.91;5042074;28;20234;-67
2021/12/28 06:05:53;;;;;;;1.93;1.30;;;;;;;6.82;76.21;97280.47;5044993;28;20287;-67
2021/12/28 06:08:20;;;;;;;2.53;1.57;;;;;;;7.47;75.51;97256.53;5044337;28;20231;-68
2021/12/28 06:10:58;;;;;;;1.60;1.50;;;;;;;6.89;76.45;97287.34;5045450;28;20231;-67
2021/12/28 06:13:25;;;;;;;1.70;1.60;;;;;;;8.34;72.47;97232.00;5045774;28;20211;-67
2021/12/28 06:15:52;;;;;;;2.53;1.87;;;;;;;7.33;73.25;97261.91;5045875;28;20230;-67
2021/12/28 06:18:19;;;;;;;1.40;1.30;;;;;;;6.80;75.09;97279.84;5046106;28;20230;-67
2021/12/28 06:20:46;;;;;;;1.50;1.40;;;;;;;7.60;72.91;97247.69;5044889;28;20234;-67
2021/12/28 06:23:14;;;;;;;1.80;1.43;;;;;;;7.49;75.12;97257.94;5040339;28;20228;-67
2021/12/28 06:25:40;;;;;;;2.03;1.40;;;;;;;7.75;72.58;97239.44;5044896;28;20220;-67
2021/12/28 06:28:08;;;;;;;2.80;1.43;;;;;;;7.58;72.83;97253.19;5040158;28;20235;-67
2021/12/28 06:30:36;;;;;;;2.97;1.60;;;;;;;7.76;72.79;97251.69;5053680;28;20238;-67
2021/12/28 06:33:03;;;;;;;1.10;1.10;;;;;;;6.69;75.73;97279.44;5043684;28;20733;-67
2021/12/28 06:35:31;;;;;;;1.50;1.40;;;;;;;7.81;74.09;97251.88;5045073;28;20231;-67
2021/12/28 06:37:58;;;;;;;2.03;1.40;;;;;;;8.45;71.85;97225.97;5046097;28;20231;-67
2021/12/28 06:40:25;;;;;;;1.40;1.30;;;;;;;7.53;72.37;97234.44;5039696;28;20242;-67
2021/12/28 06:42:52;;;;;;;2.60;1.40;;;;;;;8.19;73.30;97241.13;5051027;28;20233;-67
2021/12/28 06:45:19;;;;;;;3.03;1.83;;;;;;;7.16;75.99;97278.50;5045074;28;20895;-67
2021/12/28 06:47:47;;;;;;;1.53;1.43;;;;;;;7.58;75.58;97252.38;5045533;28;20228;-67
2021/12/28 06:50:13;;;;;;;2.73;1.83;;;;;;;7.54;75.46;97265.25;5043572;28;20218;-67
2021/12/28 06:52:41;;;;;;;1.50;1.40;;;;;;;7.00;75.36;97287.72;5045634;28;20230;-67
2021/12/28 06:55:09;;;;;;;1.97;1.50;;;;;;;8.03;73.49;97242.50;5045942;28;20228;-67
2021/12/28 06:57:37;;;;;;;2.40;1.57;;;;;;;8.09;71.92;97216.91;5040870;28;20227;-67
2021/12/28 07:00:07;;;;;;;1.33;1.30;;;;;;;8.18;71.47;97236.84;5043044;28;20232;-67
2021/12/28 07:02:34;;;;;;;1.60;1.50;;;;;;;6.67;75.91;97276.19;5045167;28;20234;-67
2021/12/28 07:05:03;;;;;;;1.23;1.23;;;;;;;7.17;75.10;97283.59;5045056;28;20609;-67
2021/12/28 07:07:30;;;;;;;1.53;1.33;;;;;;;8.28;72.72;97231.06;5044745;28;20238;-67
2021/12/28 07:09:57;;;;;;;1.60;1.50;;;;;;;8.29;72.68;97223.88;5043943;28;20823;-67
2021/12/28 07:12:24;;;;;;;1.37;1.27;;;;;;;7.04;77.16;97297.72;5043433;28;20223;-67
2021/12/28 07:14:51;;;;;;;1.70;1.30;;;;;;;7.05;75.59;97264.88;5045790;28;20361;-67
2021/12/28 07:17:18;;;;;;;1.90;1.60;;;;;;;7.94;75.58;97242.97;5044239;28;20216;-67
2021/12/28 07:19:46;;;;;;;1.50;1.40;;;;;;;8.38;73.31;97222.56;5044992;28;20656;-67
2021/12/28 07:22:13;;;;;;;1.20;1.20;;;;;;;7.73;77.49;97249.47;5044789;28;20218;-67
2021/12/28 07:24:40;;;;;;;1.40;1.30;;;;;;;6.37;80.44;97307.63;5038782;28;20240;-67
2021/12/28 07:27:06;;;;;;;3.27;1.33;;;;;;;7.64;77.19;97260.34;5045391;28;20246;-67
2021/12/28 07:29:34;;;;;;;2.30;1.50;;;;;;;7.49;78.31;97270.41;5050671;28;20230;-67
2021/12/28 07:32:02;;;;;;;1.30;1.30;;;;;;;7.24;79.30;97287.03;5039853;28;20224;-68
2021/12/28 07:34:31;;;;;;;1.50;1.40;;;;;;;7.21;79.62;97281.34;5044029;28;20235;-67
2021/12/28 07:36:58;;;;;;;1.97;1.53;;;;;;;6.71;80.98;97293.31;5044626;28;20228;-67
2021/12/28 07:39:25;;;;;;;1.50;1.40;;;;;;;6.48;82.74;97300.91;5043454;28;20228;-67
2021/12/28 07:41:52;;;;;;;1.40;1.40;;;;;;;6.83;80.87;97280.25;5044586;28;20228;-68
2021/12/28 07:44:24;;;;;;;1.47;1.30;;;;;;;6.24;82.28;97303.13;5040529;28;20227;-67
2021/12/28 07:46:53;;;;;;;1.60;1.50;;;;;;;6.75;82.50;97291.88;5045675;28;20240;-67
2021/12/28 07:49:20;;;;;;;1.30;1.30;;;;;;;7.00;83.19;97272.66;5049368;28;20228;-67
2021/12/28 07:51:48;;;;;;;1.30;1.30;;;;;;;7.26;79.98;97258.47;5047611;28;20228;-67
2021/12/28 07:54:16;;;;;;;1.63;1.53;;;;;;;7.98;77.99;97221.09;5057113;28;20744;-67
2021/12/28 07:56:43;;;;;;;3.80;1.30;;;;;;;7.54;78.50;97254.66;5045100;28;20252;-67
2021/12/28 07:59:10;;;;;;;1.37;1.37;;;;;;;8.14;78.46;97240.97;5047982;28;20216;-66
2021/12/28 08:01:37;;;;;;;1.30;1.30;;;;;;;7.24;80.16;97278.28;5050619;28;20740;-66
2021/12/28 08:04:05;;;;;;;1.77;1.67;;;;;;;7.07;80.71;97292.00;5048046;28;20228;-67
2021/12/28 08:06:33;;;;;;;1.40;1.30;;;;;;;7.48;78.59;97264.25;5047902;28;20228;-66
2021/12/28 08:09:00;;;;;;;1.67;1.57;;;;;;;8.16;76.95;97240.75;5048045;28;20281;-67
2021/12/28 08:11:27;;;;;;;1.53;1.43;;;;;;;7.32;80.51;97301.91;5048618;28;21122;-66
2021/12/28 08:13:54;;;;;;;1.43;1.43;;;;;;;7.65;80.10;97282.34;5049020;28;20223;-67
2021/12/28 08:16:22;;;;;;;1.37;1.27;;;;;;;6.88;81.12;97322.84;5048683;28;20874;-66
2021/12/28 08:18:49;;;;;;;1.20;1.20;;;;;;;8.59;75.34;97239.94;5047255;28;20239;-67
2021/12/28 08:21:36;;;;;;;1.27;1.27;;;;;;;7.92;78.54;97276.88;5042268;28;20233;-67
2021/12/28 08:24:06;;;;;;;1.40;1.40;;;;;;;7.33;77.18;97300.84;5042626;28;20246;-67
2021/12/28 08:26:33;;;;;;;1.50;1.40;;;;;;;8.38;77.52;97283.66;5044884;28;20230;-67
2021/12/28 08:29:00;;;;;;;1.47;1.47;;;;;;;7.31;78.19;97298.41;5047356;28;20239;-67
2021/12/28 08:31:27;;;;;;;1.57;1.53;;;;;;;7.65;79.97;97317.66;5041571;28;20220;-67
2021/12/28 08:33:54;;;;;;;1.30;1.30;;;;;;;7.50;79.66;97319.75;5047906;28;20232;-67
2021/12/28 08:36:22;;;;;;;1.87;1.50;;;;;;;8.37;78.71;97285.50;5045144;28;20620;-66
2021/12/28 08:38:48;;;;;;;1.30;1.30;;;;;;;8.03;77.33;97300.09;5030899;28;20227;-67
2021/12/28 08:41:17;;;;;;;1.60;1.50;;;;;;;7.43;83.36;97335.69;5048425;28;20216;-67
2021/12/28 08:43:47;;;;;;;1.50;1.50;;;;;;;7.36;80.34;97331.47;5047782;28;20220;-66
2021/12/28 08:46:15;;;;;;;1.30;1.30;;;;;;;8.84;77.36;97273.66;5040275;28;20235;-66
2021/12/28 08:48:42;;;;;;;1.27;1.27;;;;;;;8.57;77.85;97287.97;5040831;28;20320;-67
2021/12/28 08:51:09;;;;;;;1.83;1.57;;;;;;;8.86;76.77;97276.91;5047587;28;20232;-67
2021/12/28 08:53:36;;;;;;;3.40;2.97;;;;;;;8.80;75.74;97299.84;5047060;28;20224;-67
2021/12/28 08:56:03;;;;;;;1.70;1.60;;;;;;;7.30;80.18;97363.09;5029474;28;20228;-67
2021/12/28 08:58:31;;;;;;;1.63;1.53;;;;;;;7.94;80.66;97349.16;5047445;28;20225;-67
2021/12/28 09:00:58;;;;;;;1.70;1.60;;;;;;;8.80;77.60;97318.44;5044210;28;20980;-67
2021/12/28 09:03:25;;;;;;;1.50;1.50;;;;;;;7.35;79.84;97374.91;5040448;28;20247;-67
2021/12/28 09:05:52;;;;;;;1.70;1.60;;;;;;;8.77;77.69;97325.03;5041334;28;20707;-67
2021/12/28 09:08:19;;;;;;;1.83;1.73;;;;;;;8.52;77.42;97333.00;5047136;28;20232;-67
2021/12/28 09:10:48;;;;;;;5.80;3.10;;;;;;;8.33;77.88;97344.59;5046262;28;20249;-66
2021/12/28 09:13:17;;;;;;;1.80;1.70;;;;;;;8.66;76.65;97331.03;5046413;28;20220;-66
2021/12/28 09:15:46;;;;;;;1.83;1.60;;;;;;;9.37;74.81;97323.53;5047726;28;20228;-67
2021/12/28 09:18:13;;;;;;;1.70;1.60;;;;;;;8.79;75.42;97330.13;5047225;28;20208;-67
2021/12/28 09:20:41;;;;;;;1.60;1.50;;;;;;;8.61;77.25;97376.03;5046718;28;20234;-67
2021/12/28 09:23:10;;;;;;;1.87;1.77;;;;;;;9.42;74.64;97331.66;5045341;28;20216;-67
2021/12/28 09:25:38;;;;;;;1.80;1.70;;;;;;;9.41;74.02;97345.19;5047695;28;20601;-67
2021/12/28 09:28:07;;;;;;;1.80;1.70;;;;;;;9.60;73.76;97356.66;5047546;28;20234;-67
2021/12/28 09:30:37;;;;;;;1.57;1.57;;;;;;;9.31;74.24;97367.81;5032638;28;20232;-67
2021/12/28 09:33:04;;;;;;;1.67;1.57;;;;;;;9.27;73.48;97349.88;5041659;28;20228;-67
2021/12/28 09:35:32;;;;;;;2.00;1.90;;;;;;;9.68;73.24;97364.34;5041844;28;20896;-66
2021/12/28 09:37:59;;;;;;;2.50;2.37;;;;;;;9.86;72.67;97366.16;5035784;28;20227;-67
2021/12/28 09:40:30;;;;;;;2.03;1.83;;;;;;;9.66;73.64;97380.53;5047246;28;20712;-66
2021/12/28 09:42:57;;;;;;;2.07;1.87;;;;;;;9.20;73.87;97383.72;5046382;28;20235;-66
2021/12/28 09:45:24;;;;;;;2.70;2.03;;;;;;;9.45;74.12;97388.97;5046174;28;20732;-66
2021/12/28 09:47:51;;;;;;;2.23;1.87;;;;;;;9.65;74.15;97375.41;5046807;28;20230;-67
2021/12/28 09:50:19;;;;;;;1.70;1.60;;;;;;;9.83;73.03;97370.06;5045082;28;20224;-67
2021/12/28 09:52:49;;;;;;;1.67;1.60;;;;;;;9.63;73.47;97377.47;5045522;28;20301;-66
2021/12/28 09:55:20;;;;;;;1.70;1.60;;;;;;;9.74;73.91;97377.53;5046542;28;20220;-67
2021/12/28 09:57:49;;;;;;;1.60;1.50;;;;;;;9.29;76.19;97396.50;5046401;28;20722;-67
2021/12/28 10:00:18;;;;;;;1.37;1.37;;;;;;;9.11;76.18;97404.47;5054742;28;20235;-66
2021/12/28 10:03:05;;;;;;;1.97;1.80;;;;;;;10.20;72.06;97364.66;5046830;28;20236;-66
2021/12/28 10:05:33;;;;;;;2.60;1.90;;;;;;;10.08;72.16;97369.97;5045258;28;20223;-66
2021/12/28 10:08:04;;;;;;;1.90;1.80;;;;;;;9.84;74.15;97390.34;5035437;28;20224;-66
2021/12/28 10:10:32;;;;;;;3.00;1.70;;;;;;;9.25;76.57;97395.31;5043335;28;21078;-67
2021/12/28 10:13:03;;;;;;;1.90;1.80;;;;;;;9.41;77.28;97393.09;5043453;28;20729;-67
2021/12/28 10:15:34;;;;;;;1.90;1.67;;;;;;;8.76;75.21;97399.66;5044363;28;20232;-66
2021/12/28 10:18:06;;;;;;;4.70;3.97;;;;;;;9.72;75.07;97371.63;5046531;28;20219;-67
2021/12/28 10:20:37;;;;;;;4.07;2.70;;;;;;;9.62;75.82;97381.19;5044390;28;20228;-67
2021/12/28 10:23:06;;;;;;;4.10;2.07;;;;;;;9.71;76.08;97390.47;5028382;28;20228;-67
2021/12/28 10:25:39;;;;;;;2.20;2.00;;;;;;;8.33;78.34;97424.28;5040525;28;20219;-67
2021/12/28 10:28:10;;;;;;;2.03;1.90;;;;;;;9.40;76.76;97386.97;5045256;28;20220;-67
2021/12/28 10:30:41;;;;;;;3.73;2.10;;;;;;;10.11;74.49;97366.81;5053528;28;21865;-67
2021/12/28 10:33:15;;;;;;;1.90;1.80;;;;;;;10.06;74.32;97361.34;5046655;28;20227;-67
2021/12/28 10:35:44;;;;;;;2.27;1.80;;;;;;;9.77;76.30;97378.13;5037690;28;20233;-67
2021/12/28 10:38:14;;;;;;;2.47;1.87;;;;;;;8.91;79.25;97420.59;5042488;28;20224;-67
2021/12/28 10:40:51;;;;;;;2.90;2.23;;;;;;;10.03;75.82;97361.00;5045721;28;20224;-67
2021/12/28 10:43:21;;;;;;;2.63;2.10;;;;;;;10.93;72.62;97343.19;5045942;28;20227;-67
2021/12/28 10:45:52;;;;;;;3.17;2.17;;;;;;;10.52;73.34;97356.34;5045054;28;20224;-67
2021/12/28 10:48:22;;;;;;;3.90;2.10;;;;;;;10.64;71.85;97349.19;5045550;28;20228;-67
2021/12/28 10:50:53;;;;;;;2.20;2.07;;;;;;;10.87;71.89;97358.25;5043373;28;20224;-67
2021/12/28 10:53:33;;;;;;;3.50;2.10;;;;;;;10.73;71.02;97359.53;5027534;28;20228;-67
2021/12/28 10:56:01;;;;;;;5.93;3.70;;;;;;;10.81;71.07;97357.31;5045276;28;20224;-67
2021/12/28 10:58:41;;;;;;;4.20;3.80;;;;;;;10.44;72.95;97376.16;5045931;28;20230;-67
2021/12/28 11:03:59;;;;;;;2.77;2.57;;;;;;;9.22;77.00;97387.75;5053737;28;21199;-67
2021/12/28 11:06:31;;;;;;;3.10;2.40;;;;;;;9.34;76.93;97387.84;4992972;28;20225;-67
2021/12/28 11:09:06;;;;;;;2.83;2.30;;;;;;;9.56;75.55;97382.91;5021170;28;20224;-67
2021/12/28 11:11:34;;;;;;;2.17;2.07;;;;;;;9.22;77.01;97402.91;5009249;28;20758;-67
2021/12/28 11:14:04;;;;;;;3.10;2.20;;;;;;;9.47;75.94;97392.22;5032662;28;20622;-67
2021/12/28 11:16:32;;;;;;;2.43;2.23;;;;;;;10.03;74.69;97364.50;5023278;28;20258;-68
2021/12/28 11:19:03;;;;;;;2.13;1.93;;;;;;;10.13;73.71;97355.13;5022889;28;20232;-67
2021/12/28 11:21:34;;;;;;;2.00;1.73;;;;;;;8.06;79.21;97409.31;5023149;28;20224;-67
2021/12/28 11:24:06;;;;;;;1.90;1.80;;;;;;;9.87;75.66;97362.47;5005020;28;20687;-68
2021/12/28 11:26:37;;;;;;;2.30;2.10;;;;;;;9.85;75.31;97359.22;5022270;28;20236;-67
2021/12/28 11:29:09;;;;;;;2.10;2.00;;;;;;;10.09;74.73;97346.78;5021931;28;20721;-67
2021/12/28 11:31:42;;;;;;;1.87;1.77;;;;;;;9.60;75.84;97365.44;5021326;28;20220;-67
2021/12/28 11:34:19;;;;;;;1.90;1.80;;;;;;;9.74;76.07;97360.75;5023129;28;20224;-67
2021/12/28 11:36:52;;;;;;;2.00;1.90;;;;;;;9.99;75.02;97342.00;5020955;28;20583;-68
2021/12/28 11:39:29;;;;;;;3.67;1.90;;;;;;;9.92;75.91;97346.63;5018313;28;20238;-67
2021/12/28 11:41:58;;;;;;;2.33;2.17;;;;;;;9.68;75.02;97349.16;5027092;28;20653;-67
2021/12/28 11:44:27;;;;;;;1.87;1.73;;;;;;;9.77;76.37;97362.97;5022198;28;20704;-67
2021/12/28 11:46:57;;;;;;;2.50;1.60;;;;;;;10.25;74.25;97334.66;5019031;28;20229;-68
2021/12/28 11:49:28;;;;;;;1.97;1.87;;;;;;;9.47;77.81;97369.06;5020135;28;20224;-68
2021/12/28 11:51:58;;;;;;;1.80;1.67;;;;;;;9.89;74.55;97342.53;5021846;28;20223;-67